Time;durP1;ratioP1;P1;durP2;ratioP2;P2;SDS_P1;SDS_P2;PMS_P1;PMS_P2;Temp;Humidity;BMP_temperature;BMP_pressure;BME280_temperature;BME280_humidity;BME280_pressure;Samples;Min_cycle;Max_cycle;Signal;HPM_P1;HPM_P2
2023/05/22 00:01:18;;;;;;;42.63;18.90;;;;;;;;;;5061668;28;20035;-70
2023/05/22 00:03:43;;;;;;;45.00;20.48;;;;;;;;;;5060943;28;20516;-71
2023/05/22 00:06:10;;;;;;;46.10;20.80;;;;;;;;;;5059691;28;20040;-71
2023/05/22 00:08:36;;;;;;;45.00;20.63;;;;;;;;;;5061104;28;20040;-69
2023/05/22 00:11:04;;;;;;;41.50;20.90;;;;;;;;;;5060721;28;20535;-70
2023/05/22 00:13:30;;;;;;;39.95;20.17;;;;;;;;;;5061642;28;20119;-70
2023/05/22 00:15:55;;;;;;;46.78;20.45;;;;;;;;;;5059707;28;20043;-71
2023/05/22 00:18:21;;;;;;;52.88;20.40;;;;;;;;;;5062061;28;20188;-70
2023/05/22 00:20:47;;;;;;;48.25;21.20;;;;;;;;;;5061427;28;20369;-70
2023/05/22 00:23:12;;;;;;;42.50;20.00;;;;;;;;;;5061124;28;20103;-70
2023/05/22 00:25:38;;;;;;;47.00;20.83;;;;;;;;;;5042366;28;20060;-70
2023/05/22 00:28:03;;;;;;;42.17;20.77;;;;;;;;;;5060083;28;20021;-70
2023/05/22 00:30:32;;;;;;;45.50;20.08;;;;;;;;;;5060690;28;20044;-71
2023/05/22 00:32:57;;;;;;;48.72;21.50;;;;;;;;;;5059482;28;20047;-70
2023/05/22 00:35:22;;;;;;;44.00;20.20;;;;;;;;;;5060941;28;20013;-71
2023/05/22 00:37:48;;;;;;;39.22;20.00;;;;;;;;;;5060978;28;20325;-69
2023/05/22 00:40:16;;;;;;;45.17;19.60;;;;;;;;;;5059764;28;20025;-70
2023/05/22 00:42:45;;;;;;;43.80;20.05;;;;;;;;;;5059523;28;20508;-70
2023/05/22 00:45:14;;;;;;;39.42;18.98;;;;;;;;;;5061203;28;20112;-71
2023/05/22 00:47:40;;;;;;;45.17;20.20;;;;;;;;;;5060850;28;20048;-70
2023/05/22 00:50:09;;;;;;;51.45;21.02;;;;;;;;;;5046948;28;20082;-69
2023/05/22 00:52:36;;;;;;;46.08;20.45;;;;;;;;;;5062636;28;20025;-69
2023/05/22 00:55:02;;;;;;;51.33;19.70;;;;;;;;;;5014798;28;20483;-70
2023/05/22 00:57:29;;;;;;;43.47;20.38;;;;;;;;;;4943619;28;20035;-69
2023/05/22 00:59:54;;;;;;;49.00;20.92;;;;;;;;;;4962852;28;20384;-69
2023/05/22 01:02:20;;;;;;;49.83;21.33;;;;;;;;;;4962306;28;20038;-69
2023/05/22 01:04:54;;;;;;;53.97;21.70;;;;;;;;;;4962678;28;20027;-70
2023/05/22 01:07:20;;;;;;;47.92;21.77;;;;;;;;;;4962205;28;20042;-70
2023/05/22 01:09:45;;;;;;;49.63;21.10;;;;;;;;;;4962833;28;20380;-70
2023/05/22 01:12:26;;;;;;;49.17;21.13;;;;;;;;;;4961685;28;20042;-70
2023/05/22 01:14:58;;;;;;;45.00;22.27;;;;;;;;;;4960231;28;20031;-70
2023/05/22 01:17:33;;;;;;;54.22;23.02;;;;;;;;;;4961808;28;20083;-70
2023/05/22 01:20:17;;;;;;;43.50;22.42;;;;;;;;;;4960688;28;20027;-69
2023/05/22 01:22:46;;;;;;;50.03;22.15;;;;;;;;;;4960135;28;20046;-70
2023/05/22 01:25:30;;;;;;;49.40;23.45;;;;;;;;;;4944250;28;20031;-71
2023/05/22 01:28:03;;;;;;;46.20;23.67;;;;;;;;;;4962169;28;20076;-69
2023/05/22 01:30:48;;;;;;;43.45;23.27;;;;;;;;;;4962352;28;20034;-69
2023/05/22 01:33:13;;;;;;;46.25;22.98;;;;;;;;;;4961870;28;20070;-70
2023/05/22 01:35:40;;;;;;;52.67;23.80;;;;;;;;;;4960642;28;20055;-69
2023/05/22 01:38:06;;;;;;;53.42;25.85;;;;;;;;;;4962416;28;20369;-69
2023/05/22 01:40:31;;;;;;;48.15;23.88;;;;;;;;;;4960626;28;20038;-70
2023/05/22 01:42:57;;;;;;;52.67;25.45;;;;;;;;;;4960156;28;20034;-70
2023/05/22 01:45:22;;;;;;;56.13;24.77;;;;;;;;;;4960136;28;20023;-70
2023/05/22 01:47:47;;;;;;;46.00;24.23;;;;;;;;;;4961606;28;20096;-69
2023/05/22 01:50:13;;;;;;;49.75;25.20;;;;;;;;;;4961968;28;20023;-70
2023/05/22 01:53:07;;;;;;;47.70;26.13;;;;;;;;;;4961584;28;20141;-72
2023/05/22 01:55:54;;;;;;;55.30;27.30;;;;;;;;;;5027796;28;20020;-70
2023/05/22 01:58:25;;;;;;;60.30;28.83;;;;;;;;;;5062251;28;20415;-72
2023/05/22 02:00:53;;;;;;;51.58;28.45;;;;;;;;;;5061313;28;20024;-70
2023/05/22 02:03:23;;;;;;;56.00;27.13;;;;;;;;;;5062863;28;20029;-70
2023/05/22 02:05:50;;;;;;;56.88;28.42;;;;;;;;;;5063090;28;20047;-71
2023/05/22 02:08:16;;;;;;;52.65;26.95;;;;;;;;;;5063311;28;20303;-70
2023/05/22 02:10:42;;;;;;;58.35;27.95;;;;;;;;;;5063343;28;20130;-70
2023/05/22 02:13:07;;;;;;;50.10;27.95;;;;;;;;;;5062883;28;20388;-70
2023/05/22 02:15:33;;;;;;;56.08;25.23;;;;;;;;;;5044426;28;20035;-70
2023/05/22 02:18:02;;;;;;;52.00;25.15;;;;;;;;;;5060962;28;20036;-71
2023/05/22 02:20:27;;;;;;;48.83;25.75;;;;;;;;;;5062864;28;20279;-71
2023/05/22 02:22:53;;;;;;;50.22;24.05;;;;;;;;;;5061411;28;20029;-71
2023/05/22 02:25:18;;;;;;;55.78;24.15;;;;;;;;;;5061484;28;20021;-71
2023/05/22 02:27:44;;;;;;;54.50;24.83;;;;;;;;;;5062668;28;20396;-70
2023/05/22 02:30:10;;;;;;;53.58;25.70;;;;;;;;;;5063031;28;20405;-70
2023/05/22 02:32:36;;;;;;;54.55;25.88;;;;;;;;;;5060114;28;20480;-71
2023/05/22 02:35:02;;;;;;;51.95;25.45;;;;;;;;;;5061083;28;20029;-71
2023/05/22 02:37:27;;;;;;;54.22;27.73;;;;;;;;;;5062495;28;20021;-71
2023/05/22 02:39:55;;;;;;;53.03;26.67;;;;;;;;;;5060996;28;20504;-70
2023/05/22 02:42:20;;;;;;;59.65;26.95;;;;;;;;;;5062474;28;20031;-70
2023/05/22 02:44:45;;;;;;;57.55;25.60;;;;;;;;;;5062520;28;20032;-69
2023/05/22 02:47:11;;;;;;;55.92;23.92;;;;;;;;;;5062871;28;20165;-70
2023/05/22 02:49:36;;;;;;;54.58;25.73;;;;;;;;;;5062689;28;20021;-70
2023/05/22 02:52:01;;;;;;;58.22;26.42;;;;;;;;;;5061763;28;20020;-70
2023/05/22 02:54:27;;;;;;;50.42;25.67;;;;;;;;;;5039159;28;20027;-72
2023/05/22 02:56:55;;;;;;;56.25;27.35;;;;;;;;;;4960399;28;20029;-71
2023/05/22 02:59:20;;;;;;;64.65;27.35;;;;;;;;;;4959471;28;20054;-70
2023/05/22 03:01:47;;;;;;;62.95;27.80;;;;;;;;;;4960024;28;20023;-70
2023/05/22 03:04:12;;;;;;;64.38;28.45;;;;;;;;;;4961036;28;20471;-70
2023/05/22 03:06:38;;;;;;;53.63;27.73;;;;;;;;;;4960315;28;20043;-70
2023/05/22 03:09:04;;;;;;;69.72;29.88;;;;;;;;;;4959893;28;20047;-70
2023/05/22 03:11:30;;;;;;;60.13;29.73;;;;;;;;;;4958455;28;20101;-71
2023/05/22 03:13:55;;;;;;;63.70;28.98;;;;;;;;;;4959467;28;20043;-70
2023/05/22 03:16:20;;;;;;;60.20;30.10;;;;;;;;;;4960219;28;20031;-71
2023/05/22 03:18:46;;;;;;;63.55;32.97;;;;;;;;;;4958834;28;20051;-70
2023/05/22 03:21:11;;;;;;;79.68;35.40;;;;;;;;;;4960654;28;20050;-70
2023/05/22 03:23:36;;;;;;;69.40;36.72;;;;;;;;;;4960807;28;20031;-70
2023/05/22 03:26:01;;;;;;;75.43;37.83;;;;;;;;;;4960655;28;20050;-71
2023/05/22 03:28:27;;;;;;;66.95;34.75;;;;;;;;;;4960390;28;20031;-71
2023/05/22 03:30:52;;;;;;;66.15;35.75;;;;;;;;;;4961069;28;20457;-70
2023/05/22 03:33:17;;;;;;;61.53;35.75;;;;;;;;;;4961017;28;20043;-70
2023/05/22 03:35:45;;;;;;;78.43;37.60;;;;;;;;;;4960645;28;20126;-70
2023/05/22 03:38:10;;;;;;;75.85;37.58;;;;;;;;;;4958407;28;20102;-70
2023/05/22 03:40:35;;;;;;;67.38;36.60;;;;;;;;;;4960449;28;20239;-70
2023/05/22 03:43:00;;;;;;;70.93;36.88;;;;;;;;;;4959585;28;20023;-70
2023/05/22 03:45:26;;;;;;;74.63;36.38;;;;;;;;;;4958162;28;20043;-70
2023/05/22 03:47:51;;;;;;;69.05;36.03;;;;;;;;;;4958556;28;20023;-70
2023/05/22 03:50:16;;;;;;;76.90;36.60;;;;;;;;;;4960484;28;20084;-69
2023/05/22 03:52:42;;;;;;;74.53;38.10;;;;;;;;;;4959039;28;20167;-69
2023/05/22 03:55:07;;;;;;;72.53;36.90;;;;;;;;;;5010632;28;20025;-70
2023/05/22 03:57:33;;;;;;;78.03;37.78;;;;;;;;;;5061442;28;20025;-70
2023/05/22 04:00:05;;;;;;;70.90;35.05;;;;;;;;;;5059721;28;20373;-70
2023/05/22 04:02:30;;;;;;;76.45;35.85;;;;;;;;;;5060958;28;20100;-70
2023/05/22 04:04:55;;;;;;;71.85;34.30;;;;;;;;;;5042664;28;20082;-70
2023/05/22 04:07:21;;;;;;;69.05;34.92;;;;;;;;;;5060694;28;20048;-70
2023/05/22 04:09:46;;;;;;;66.28;34.85;;;;;;;;;;5059724;28;20037;-69
2023/05/22 04:12:11;;;;;;;67.00;34.33;;;;;;;;;;5060650;28;20085;-70
2023/05/22 04:14:37;;;;;;;68.35;34.00;;;;;;;;;;5061527;28;20033;-70
2023/05/22 04:17:02;;;;;;;68.68;34.17;;;;;;;;;;5061087;28;20028;-72
2023/05/22 04:19:30;;;;;;;74.72;35.47;;;;;;;;;;5043377;28;20020;-70
2023/05/22 04:21:56;;;;;;;71.63;33.55;;;;;;;;;;5060032;28;20496;-70
2023/05/22 04:24:22;;;;;;;73.40;34.42;;;;;;;;;;5065608;28;20032;-70
2023/05/22 04:26:47;;;;;;;66.25;32.65;;;;;;;;;;5062809;28;20238;-71
2023/05/22 04:29:13;;;;;;;76.53;36.08;;;;;;;;;;5063732;28;20029;-70
2023/05/22 04:31:38;;;;;;;73.45;35.47;;;;;;;;;;5062476;28;20035;-70
2023/05/22 04:34:04;;;;;;;71.82;32.97;;;;;;;;;;5065200;28;20025;-71
2023/05/22 04:36:32;;;;;;;59.17;33.20;;;;;;;;;;5064892;28;20043;-70
2023/05/22 04:39:01;;;;;;;69.25;34.65;;;;;;;;;;5046668;28;20035;-70
2023/05/22 04:41:26;;;;;;;76.97;35.08;;;;;;;;;;5065314;28;20025;-70
2023/05/22 04:43:52;;;;;;;59.67;32.50;;;;;;;;;;5064885;28;20032;-70
2023/05/22 04:46:18;;;;;;;67.40;33.38;;;;;;;;;;5065158;28;20267;-70
2023/05/22 04:48:43;;;;;;;71.18;33.05;;;;;;;;;;5064743;28;20514;-70
2023/05/22 04:51:08;;;;;;;61.63;32.30;;;;;;;;;;5062591;28;20485;-71
2023/05/22 04:53:34;;;;;;;72.88;34.85;;;;;;;;;;5064770;28;20043;-71
2023/05/22 04:56:00;;;;;;;68.00;35.67;;;;;;;;;;4973522;28;20038;-70
2023/05/22 04:58:28;;;;;;;73.20;38.00;;;;;;;;;;4961116;28;20035;-71
2023/05/22 05:00:53;;;;;;;65.43;34.20;;;;;;;;;;4961931;28;20034;-70
2023/05/22 05:03:19;;;;;;;61.25;34.70;;;;;;;;;;4961046;28;20035;-71
2023/05/22 05:05:46;;;;;;;61.67;33.67;;;;;;;;;;4962763;28;20518;-70
2023/05/22 05:08:12;;;;;;;55.00;33.80;;;;;;;;;;4961607;28;20031;-72
2023/05/22 05:10:37;;;;;;;60.67;32.65;;;;;;;;;;4960368;28;20038;-71
2023/05/22 05:13:02;;;;;;;58.50;31.98;;;;;;;;;;4962809;28;20284;-71
2023/05/22 05:15:28;;;;;;;52.70;30.05;;;;;;;;;;4961722;28;20114;-71
2023/05/22 05:17:53;;;;;;;57.58;29.30;;;;;;;;;;4961700;28;20106;-71
2023/05/22 05:20:19;;;;;;;55.47;29.23;;;;;;;;;;4944456;28;20027;-71
2023/05/22 05:22:45;;;;;;;55.42;29.48;;;;;;;;;;4944486;28;20019;-72
2023/05/22 05:25:10;;;;;;;55.00;28.98;;;;;;;;;;4961877;28;20475;-72
2023/05/22 05:27:35;;;;;;;49.78;28.45;;;;;;;;;;4952850;28;20138;-71
2023/05/22 05:30:01;;;;;;;45.97;26.70;;;;;;;;;;4961078;28;20035;-71
2023/05/22 05:32:26;;;;;;;51.47;28.50;;;;;;;;;;4961483;28;20031;-71
2023/05/22 05:34:51;;;;;;;47.15;28.42;;;;;;;;;;4960352;28;20234;-71
2023/05/22 05:37:17;;;;;;;55.20;28.90;;;;;;;;;;4961897;28;20440;-71
2023/05/22 05:39:42;;;;;;;46.85;27.63;;;;;;;;;;4962548;28;20031;-71
2023/05/22 05:42:07;;;;;;;47.70;27.80;;;;;;;;;;4961115;28;20106;-71
2023/05/22 05:44:32;;;;;;;54.80;28.98;;;;;;;;;;4962085;28;20133;-71
2023/05/22 05:46:58;;;;;;;51.22;28.35;;;;;;;;;;4960364;28;20081;-71
2023/05/22 05:49:23;;;;;;;58.08;29.92;;;;;;;;;;4960728;28;20031;-71
2023/05/22 05:51:48;;;;;;;51.38;28.65;;;;;;;;;;4959736;28;20034;-71
2023/05/22 05:54:14;;;;;;;59.38;29.13;;;;;;;;;;4974001;28;20564;-71
2023/05/22 05:56:39;;;;;;;51.38;25.15;;;;;;;;;;5062713;28;20029;-71
2023/05/22 05:59:07;;;;;;;49.80;24.08;;;;;;;;;;5061324;28;20388;-72
2023/05/22 06:01:34;;;;;;;52.33;24.50;;;;;;;;;;5063399;28;20017;-72
2023/05/22 06:04:04;;;;;;;44.92;23.80;;;;;;;;;;5061369;28;20032;-72
2023/05/22 06:06:35;;;;;;;49.38;22.35;;;;;;;;;;5061186;28;20044;-71
2023/05/22 06:09:01;;;;;;;41.33;20.80;;;;;;;;;;5062180;28;20033;-72
2023/05/22 06:11:26;;;;;;;38.58;20.08;;;;;;;;;;5061702;28;20481;-71
2023/05/22 06:13:54;;;;;;;40.35;20.90;;;;;;;;;;5044144;28;20032;-71
2023/05/22 06:16:19;;;;;;;38.80;19.55;;;;;;;;;;5063226;28;20029;-73
2023/05/22 06:18:48;;;;;;;35.03;19.15;;;;;;;;;;5061396;28;20116;-71
2023/05/22 06:21:16;;;;;;;33.67;18.73;;;;;;;;;;5062940;28;20413;-72
2023/05/22 06:23:41;;;;;;;41.13;19.35;;;;;;;;;;5062767;28;20078;-71
2023/05/22 06:26:07;;;;;;;38.90;18.98;;;;;;;;;;5062360;28;20033;-72
2023/05/22 06:28:33;;;;;;;34.88;17.25;;;;;;;;;;5062454;28;20035;-71
2023/05/22 06:31:00;;;;;;;36.33;19.17;;;;;;;;;;4986438;28;20048;-71
2023/05/22 06:33:33;;;;;;;38.85;18.20;;;;;;;;;;5003706;28;20049;-71
2023/05/22 06:35:58;;;;;;;37.22;17.98;;;;;;;;;;4938980;28;20283;-71
2023/05/22 06:38:25;;;;;;;31.50;17.13;;;;;;;;;;4999985;28;20429;-71
2023/05/22 06:40:51;;;;;;;38.35;18.92;;;;;;;;;;5039994;28;20564;-71
2023/05/22 06:43:19;;;;;;;32.58;18.17;;;;;;;;;;5039980;28;20029;-71
2023/05/22 06:45:46;;;;;;;32.08;16.63;;;;;;;;;;5027768;28;20468;-71
2023/05/22 06:48:12;;;;;;;28.85;15.50;;;;;;;;;;4939094;28;20038;-72
2023/05/22 06:50:37;;;;;;;23.38;14.35;;;;;;;;;;4938552;28;20486;-72
2023/05/22 06:53:02;;;;;;;30.02;14.95;;;;;;;;;;4937212;28;20100;-72
2023/05/22 06:55:28;;;;;;;31.70;13.60;;;;;;;;;;4921210;28;20090;-72
2023/05/22 06:57:53;;;;;;;25.55;12.43;;;;;;;;;;4938174;28;20038;-72
2023/05/22 07:00:19;;;;;;;22.75;12.50;;;;;;;;;;4921253;28;20168;-72
2023/05/22 07:02:48;;;;;;;27.05;13.45;;;;;;;;;;4941505;28;20504;-71
2023/05/22 07:05:13;;;;;;;32.13;14.50;;;;;;;;;;5037203;28;20322;-72
2023/05/22 07:07:38;;;;;;;23.17;12.45;;;;;;;;;;5036777;28;20048;-72
2023/05/22 07:10:04;;;;;;;31.63;12.77;;;;;;;;;;5037654;28;20226;-72
2023/05/22 07:12:29;;;;;;;22.48;12.15;;;;;;;;;;5036928;28;20037;-72
2023/05/22 07:14:56;;;;;;;25.65;13.18;;;;;;;;;;5040116;28;20345;-72
2023/05/22 07:17:21;;;;;;;22.45;12.50;;;;;;;;;;5039336;28;20521;-72
2023/05/22 07:19:47;;;;;;;26.05;12.80;;;;;;;;;;5038075;28;20043;-71
2023/05/22 07:22:12;;;;;;;19.50;12.35;;;;;;;;;;5037404;28;20583;-72
2023/05/22 07:24:38;;;;;;;22.10;11.15;;;;;;;;;;5037157;28;20029;-72
2023/05/22 07:27:03;;;;;;;23.48;12.48;;;;;;;;;;5037209;28;20063;-71
2023/05/22 07:29:28;;;;;;;20.25;12.15;;;;;;;;;;5020424;28;20302;-72
2023/05/22 07:31:56;;;;;;;23.73;11.90;;;;;;;;;;5039102;28;20519;-71
2023/05/22 07:34:21;;;;;;;21.08;11.40;;;;;;;;;;5039385;28;20037;-72
2023/05/22 07:36:47;;;;;;;20.88;11.35;;;;;;;;;;5037044;28;20247;-71
2023/05/22 07:39:12;;;;;;;19.77;12.00;;;;;;;;;;4938562;28;20081;-70
2023/05/22 07:41:38;;;;;;;19.15;12.60;;;;;;;;;;4936535;28;21017;-71
2023/05/22 07:44:03;;;;;;;21.05;12.43;;;;;;;;;;4918694;28;20500;-70
2023/05/22 07:46:29;;;;;;;17.88;12.80;;;;;;;;;;4938152;28;20212;-71
2023/05/22 07:48:54;;;;;;;18.65;11.70;;;;;;;;;;4926685;28;20573;-71
2023/05/22 07:51:20;;;;;;;17.77;11.02;;;;;;;;;;4920552;28;20031;-71
2023/05/22 07:53:47;;;;;;;16.02;10.30;;;;;;;;;;4919382;28;20085;-71
2023/05/22 07:56:13;;;;;;;16.30;9.80;;;;;;;;;;4919150;28;20035;-71
2023/05/22 07:58:38;;;;;;;13.80;9.05;;;;;;;;;;4918473;28;20484;-70
2023/05/22 08:01:04;;;;;;;14.98;8.73;;;;;;;;;;4917456;28;20042;-70
2023/05/22 08:03:30;;;;;;;13.20;9.00;;;;;;;;;;4919136;28;20028;-69
2023/05/22 08:05:55;;;;;;;12.55;8.63;;;;;;;;;;4917689;28;20434;-69
2023/05/22 08:08:24;;;;;;;16.30;8.43;;;;;;;;;;4918896;28;20199;-70
2023/05/22 08:10:49;;;;;;;15.68;7.88;;;;;;;;;;4919678;28;20040;-68
2023/05/22 08:13:17;;;;;;;13.02;7.85;;;;;;;;;;4918644;28;20036;-70
2023/05/22 08:15:42;;;;;;;13.93;7.78;;;;;;;;;;4919766;28;20605;-69
2023/05/22 08:18:07;;;;;;;13.95;7.88;;;;;;;;;;4916598;28;20033;-69
2023/05/22 08:20:33;;;;;;;16.02;7.68;;;;;;;;;;4918528;28;20114;-70
2023/05/22 08:23:00;;;;;;;11.95;7.95;;;;;;;;;;4918822;28;20511;-71
2023/05/22 08:25:26;;;;;;;11.10;7.60;;;;;;;;;;4919614;28;20215;-70
2023/05/22 08:27:51;;;;;;;11.38;7.30;;;;;;;;;;4935770;28;20367;-68
2023/05/22 08:30:16;;;;;;;12.32;7.18;;;;;;;;;;4934672;28;20187;-68
2023/05/22 08:32:42;;;;;;;10.95;6.60;;;;;;;;;;4937467;28;20543;-69
2023/05/22 08:35:07;;;;;;;10.43;7.18;;;;;;;;;;4935293;28;20027;-70
2023/05/22 08:37:32;;;;;;;14.27;7.25;;;;;;;;;;4972508;28;20149;-69
2023/05/22 08:39:58;;;;;;;11.70;7.05;;;;;;;;;;5037892;28;20029;-68
2023/05/22 08:42:23;;;;;;;10.80;6.78;;;;;;;;;;5036499;28;20036;-69
2023/05/22 08:44:48;;;;;;;11.68;7.07;;;;;;;;;;5038595;28;20055;-69
2023/05/22 08:47:14;;;;;;;12.55;7.80;;;;;;;;;;5038432;28;20044;-68
2023/05/22 08:49:39;;;;;;;10.30;7.03;;;;;;;;;;5036137;28;20020;-69
2023/05/22 08:52:25;;;;;;;12.20;6.85;;;;;;;;;;5036886;28;20147;-69
2023/05/22 08:54:53;;;;;;;13.50;7.40;;;;;;;;;;5020611;28;20664;-69
2023/05/22 08:57:19;;;;;;;11.10;7.53;;;;;;;;;;4932244;28;20215;-70
2023/05/22 08:59:45;;;;;;;13.18;7.38;;;;;;;;;;4919062;28;20516;-70
2023/05/22 09:02:11;;;;;;;9.65;7.63;;;;;;;;;;4918383;28;20057;-70
2023/05/22 09:04:36;;;;;;;10.45;7.20;;;;;;;;;;4918649;28;20038;-70
2023/05/22 09:07:04;;;;;;;11.43;7.35;;;;;;;;;;4931558;28;20510;-69
2023/05/22 09:09:29;;;;;;;12.82;8.13;;;;;;;;;;4920591;28;20917;-70
2023/05/22 09:11:55;;;;;;;14.32;7.80;;;;;;;;;;4921823;28;20294;-69
2023/05/22 09:14:20;;;;;;;12.13;7.85;;;;;;;;;;4919723;28;20427;-69
2023/05/22 09:16:46;;;;;;;11.05;7.55;;;;;;;;;;4918546;28;20323;-70
2023/05/22 09:19:12;;;;;;;12.65;7.60;;;;;;;;;;4921673;28;20035;-70
2023/05/22 09:21:37;;;;;;;10.27;7.57;;;;;;;;;;4922343;28;20046;-70
2023/05/22 09:24:06;;;;;;;11.85;7.60;;;;;;;;;;4925170;28;20055;-70
2023/05/22 09:26:32;;;;;;;11.52;7.75;;;;;;;;;;4920958;28;20468;-69
2023/05/22 09:29:00;;;;;;;11.07;7.97;;;;;;;;;;4920025;28;20036;-71
2023/05/22 09:31:28;;;;;;;10.50;6.90;;;;;;;;;;4921301;28;20032;-70
2023/05/22 09:33:56;;;;;;;8.80;7.28;;;;;;;;;;4920726;28;20139;-70
2023/05/22 09:36:28;;;;;;;9.68;7.60;;;;;;;;;;4919998;28;20108;-70
2023/05/22 09:38:54;;;;;;;11.75;6.82;;;;;;;;;;5026933;28;20075;-69
2023/05/22 09:41:21;;;;;;;8.73;6.78;;;;;;;;;;5041728;28;20028;-70
2023/05/22 09:43:50;;;;;;;9.02;6.82;;;;;;;;;;5041719;28;20025;-69
2023/05/22 09:46:15;;;;;;;10.07;6.80;;;;;;;;;;4974233;28;20046;-69
2023/05/22 09:48:41;;;;;;;10.00;6.63;;;;;;;;;;4926731;28;20067;-68
2023/05/22 09:51:07;;;;;;;11.90;7.13;;;;;;;;;;4936884;28;20491;-69
2023/05/22 09:53:33;;;;;;;11.02;7.05;;;;;;;;;;4938969;28;20487;-70
2023/05/22 09:55:59;;;;;;;8.73;7.28;;;;;;;;;;4921860;28;20353;-69
2023/05/22 09:58:29;;;;;;;10.98;7.13;;;;;;;;;;4921225;28;20039;-69
2023/05/22 10:01:00;;;;;;;11.73;7.80;;;;;;;;;;4920724;28;20032;-69
2023/05/22 10:03:25;;;;;;;11.43;7.40;;;;;;;;;;4951271;28;20031;-69
2023/05/22 10:05:54;;;;;;;19.33;8.02;;;;;;;;;;4922033;28;20714;-70
2023/05/22 10:08:21;;;;;;;11.77;8.20;;;;;;;;;;4920204;28;20254;-69
2023/05/22 10:10:48;;;;;;;10.75;8.70;;;;;;;;;;4921035;28;20027;-69
2023/05/22 10:13:15;;;;;;;12.55;8.98;;;;;;;;;;4920087;28;20027;-70
2023/05/22 10:15:40;;;;;;;11.85;9.38;;;;;;;;;;4921208;28;20544;-71
2023/05/22 10:18:06;;;;;;;12.90;9.40;;;;;;;;;;4919954;28;20427;-71
2023/05/22 10:20:31;;;;;;;11.65;8.93;;;;;;;;;;4918290;28;20424;-70
2023/05/22 10:22:57;;;;;;;12.07;8.95;;;;;;;;;;4918531;28;20032;-71
2023/05/22 10:25:22;;;;;;;13.73;8.27;;;;;;;;;;4920910;28;20023;-71
2023/05/22 10:27:50;;;;;;;12.60;9.60;;;;;;;;;;4920336;28;20136;-72
2023/05/22 10:30:18;;;;;;;13.23;7.75;;;;;;;;;;4951008;28;20031;-71
2023/05/22 10:32:43;;;;;;;15.20;8.02;;;;;;;;;;4920275;28;20043;-70
2023/05/22 10:35:27;;;;;;;13.55;7.40;;;;;;;;;;4920589;28;20210;-70
2023/05/22 10:37:54;;;;;;;15.77;7.32;;;;;;;;;;4977509;28;20196;-70
2023/05/22 10:40:27;;;;;;;15.40;7.90;;;;;;;;;;5038651;28;21662;-70
2023/05/22 10:42:57;;;;;;;13.63;6.93;;;;;;;;;;5037850;28;20040;-70
2023/05/22 10:45:24;;;;;;;18.20;7.68;;;;;;;;;;5037713;28;20539;-70
2023/05/22 10:48:00;;;;;;;21.13;7.40;;;;;;;;;;5039803;28;20136;-71
2023/05/22 10:50:25;;;;;;;26.48;7.55;;;;;;;;;;5037928;28;20654;-71
2023/05/22 10:53:10;;;;;;;21.42;7.45;;;;;;;;;;5024927;28;20209;-71
2023/05/22 10:55:45;;;;;;;16.27;7.00;;;;;;;;;;4924568;28;20039;-72
2023/05/22 10:58:14;;;;;;;16.88;6.80;;;;;;;;;;4973366;28;20041;-72
2023/05/22 11:00:39;;;;;;;15.88;6.65;;;;;;;;;;4939248;28;20155;-69
2023/05/22 11:03:05;;;;;;;14.27;6.10;;;;;;;;;;4925367;28;20667;-68
2023/05/22 11:05:33;;;;;;;22.30;7.28;;;;;;;;;;4923144;28;20039;-68
2023/05/22 11:08:08;;;;;;;23.33;7.30;;;;;;;;;;4929358;28;20046;-70
2023/05/22 11:10:53;;;;;;;22.75;7.25;;;;;;;;;;4939538;28;20126;-70
2023/05/22 11:13:18;;;;;;;30.33;8.13;;;;;;;;;;4926840;28;20040;-70
2023/05/22 11:15:49;;;;;;;23.08;8.23;;;;;;;;;;4904645;28;20058;-71
2023/05/22 11:18:15;;;;;;;24.77;8.05;;;;;;;;;;4920952;28;20784;-71
2023/05/22 11:20:43;;;;;;;27.13;7.53;;;;;;;;;;4932431;28;20038;-70
2023/05/22 11:23:11;;;;;;;23.58;7.40;;;;;;;;;;4958467;28;20632;-71
2023/05/22 11:25:37;;;;;;;20.85;7.18;;;;;;;;;;4921054;28;20067;-69
2023/05/22 11:28:05;;;;;;;24.25;8.00;;;;;;;;;;4918458;28;20177;-70
2023/05/22 11:30:31;;;;;;;18.45;7.32;;;;;;;;;;4919902;28;20577;-71
2023/05/22 11:32:57;;;;;;;21.27;7.80;;;;;;;;;;4918959;28;20031;-71
2023/05/22 11:35:23;;;;;;;25.63;7.95;;;;;;;;;;4920081;28;20027;-69
2023/05/22 11:37:48;;;;;;;19.10;7.50;;;;;;;;;;4971603;28;20265;-68
2023/05/22 11:40:15;;;;;;;21.65;7.25;;;;;;;;;;4977289;28;20041;-68
2023/05/22 11:42:43;;;;;;;20.75;7.88;;;;;;;;;;4938612;28;20026;-67
2023/05/22 11:45:10;;;;;;;21.20;8.48;;;;;;;;;;4938984;28;20467;-69
2023/05/22 11:47:36;;;;;;;17.60;7.70;;;;;;;;;;4938621;28;20038;-68
2023/05/22 11:50:02;;;;;;;15.38;7.60;;;;;;;;;;4938245;28;20495;-69
2023/05/22 11:52:32;;;;;;;18.38;7.43;;;;;;;;;;4936567;28;20617;-68
2023/05/22 11:54:57;;;;;;;21.40;7.43;;;;;;;;;;4938083;28;20459;-69
2023/05/22 11:57:22;;;;;;;17.05;7.22;;;;;;;;;;4936604;28;20042;-71
2023/05/22 11:59:48;;;;;;;30.60;8.00;;;;;;;;;;4939295;28;20042;-68
2023/05/22 12:02:14;;;;;;;24.70;7.60;;;;;;;;;;4940365;28;20035;-70
2023/05/22 12:04:40;;;;;;;21.10;7.22;;;;;;;;;;4938578;28;20030;-69
2023/05/22 12:07:05;;;;;;;24.40;8.32;;;;;;;;;;4919520;28;20255;-69
2023/05/22 12:09:31;;;;;;;18.45;7.47;;;;;;;;;;4937711;28;20042;-68
2023/05/22 12:11:59;;;;;;;22.67;7.22;;;;;;;;;;4920455;28;20519;-71
2023/05/22 12:14:25;;;;;;;22.50;7.38;;;;;;;;;;4938214;28;20058;-69
2023/05/22 12:16:51;;;;;;;23.15;7.82;;;;;;;;;;4938985;28;20100;-68
2023/05/22 12:19:17;;;;;;;18.92;7.20;;;;;;;;;;4935266;28;20219;-70
2023/05/22 12:21:43;;;;;;;20.92;7.95;;;;;;;;;;4939679;28;20372;-70
2023/05/22 12:24:08;;;;;;;16.77;7.43;;;;;;;;;;4939030;28;20112;-71
2023/05/22 12:26:34;;;;;;;18.65;7.30;;;;;;;;;;4937800;28;20073;-72
2023/05/22 12:28:59;;;;;;;21.10;7.22;;;;;;;;;;4937644;28;20038;-71
2023/05/22 12:31:24;;;;;;;21.08;7.28;;;;;;;;;;4937989;28;20038;-69
2023/05/22 12:33:56;;;;;;;18.98;7.35;;;;;;;;;;4937425;28;20035;-69
2023/05/22 12:36:40;;;;;;;28.42;8.20;;;;;;;;;;4938096;28;20027;-70
2023/05/22 12:39:09;;;;;;;20.30;7.88;;;;;;;;;;5036942;28;20147;-69
2023/05/22 12:41:34;;;;;;;20.15;7.47;;;;;;;;;;5036640;28;20096;-71
2023/05/22 12:44:00;;;;;;;21.60;7.88;;;;;;;;;;5039009;28;20029;-71
2023/05/22 12:46:26;;;;;;;22.75;8.05;;;;;;;;;;5042341;28;20036;-69
2023/05/22 12:48:51;;;;;;;19.23;7.57;;;;;;;;;;5042690;28;20756;-69
2023/05/22 12:51:17;;;;;;;17.67;7.63;;;;;;;;;;5042017;28;20029;-70
2023/05/22 12:53:42;;;;;;;17.92;7.80;;;;;;;;;;5043357;28;20060;-71
2023/05/22 12:56:07;;;;;;;17.55;7.22;;;;;;;;;;5041557;28;20131;-71
2023/05/22 12:58:32;;;;;;;17.77;7.75;;;;;;;;;;5042642;28;20028;-70
2023/05/22 13:00:58;;;;;;;24.52;8.48;;;;;;;;;;5040600;28;20141;-69
2023/05/22 13:03:23;;;;;;;25.13;8.43;;;;;;;;;;5041708;28;20059;-70
2023/05/22 13:05:48;;;;;;;22.55;8.30;;;;;;;;;;5042468;28;20818;-68
2023/05/22 13:08:17;;;;;;;26.23;8.68;;;;;;;;;;5038844;28;20620;-71
2023/05/22 13:10:42;;;;;;;23.17;8.27;;;;;;;;;;5065953;28;20043;-70
2023/05/22 13:13:07;;;;;;;19.08;8.30;;;;;;;;;;5042286;28;20093;-71
2023/05/22 13:15:34;;;;;;;30.05;8.32;;;;;;;;;;5040006;28;20176;-70
2023/05/22 13:18:00;;;;;;;26.20;9.30;;;;;;;;;;5041962;28;20024;-71
2023/05/22 13:20:25;;;;;;;22.40;8.68;;;;;;;;;;5023184;28;20029;-70
2023/05/22 13:22:50;;;;;;;23.95;8.10;;;;;;;;;;5073528;28;20046;-72
2023/05/22 13:25:17;;;;;;;21.90;8.45;;;;;;;;;;5039229;28;20024;-72
2023/05/22 13:27:43;;;;;;;24.30;8.73;;;;;;;;;;5039659;28;20443;-69
2023/05/22 13:30:11;;;;;;;27.20;9.00;;;;;;;;;;5041424;28;20524;-70
2023/05/22 13:32:38;;;;;;;20.88;8.30;;;;;;;;;;5041966;28;20769;-70
2023/05/22 13:35:04;;;;;;;25.25;8.55;;;;;;;;;;5040945;28;20036;-69
2023/05/22 13:37:29;;;;;;;18.17;8.23;;;;;;;;;;5008358;28;20045;-71
2023/05/22 13:39:55;;;;;;;23.02;8.68;;;;;;;;;;4938510;28;20039;-70
2023/05/22 13:42:20;;;;;;;21.50;8.30;;;;;;;;;;4934600;28;20031;-69
2023/05/22 13:44:45;;;;;;;18.33;8.00;;;;;;;;;;4921528;28;20024;-70
2023/05/22 13:47:11;;;;;;;23.92;8.77;;;;;;;;;;4923128;28;20045;-70
2023/05/22 13:49:36;;;;;;;21.95;8.48;;;;;;;;;;4938456;28;20399;-70
2023/05/22 13:52:01;;;;;;;28.48;9.32;;;;;;;;;;4938856;28;20135;-70
2023/05/22 13:54:27;;;;;;;24.40;9.10;;;;;;;;;;4940737;28;20412;-71
2023/05/22 13:56:52;;;;;;;22.08;8.60;;;;;;;;;;4938570;28;20538;-71
2023/05/22 13:59:17;;;;;;;25.05;9.07;;;;;;;;;;4931961;28;20090;-71
2023/05/22 14:01:43;;;;;;;24.38;9.00;;;;;;;;;;4921505;28;20038;-70
2023/05/22 14:04:10;;;;;;;18.33;8.43;;;;;;;;;;4935986;28;20034;-71
2023/05/22 14:06:36;;;;;;;21.13;7.88;;;;;;;;;;4951027;28;20645;-71
2023/05/22 14:09:02;;;;;;;16.25;7.50;;;;;;;;;;4933982;28;20051;-71
2023/05/22 14:11:27;;;;;;;19.42;8.27;;;;;;;;;;4923797;28;20124;-69
2023/05/22 14:13:55;;;;;;;20.92;8.80;;;;;;;;;;4921554;28;20277;-68
2023/05/22 14:16:24;;;;;;;26.70;8.90;;;;;;;;;;4907011;28;20035;-68
2023/05/22 14:18:49;;;;;;;23.92;9.00;;;;;;;;;;4939824;28;20130;-70
2023/05/22 14:21:15;;;;;;;19.35;8.25;;;;;;;;;;4940491;28;20038;-69